sensor_id;sensor_type;location;lat;lon;timestamp;pressure;altitude;pressure_sealevel;temperature;humidity
78562;BME280;68963;52.138;5.446;2023-06-22T00:01:18;102083.13;;;19.19;80.39
78562;BME280;68963;52.138;5.446;2023-06-22T00:03:45;102070.84;;;19.11;82.08
78562;BME280;68963;52.138;5.446;2023-06-22T00:06:12;102075.97;;;19.06;82.53
78562;BME280;68963;52.138;5.446;2023-06-22T00:08:40;102078.66;;;19.06;82.30
78562;BME280;68963;52.138;5.446;2023-06-22T00:11:07;102087.47;;;19.06;82.42
78562;BME280;68963;52.138;5.446;2023-06-22T00:13:33;102088.28;;;19.07;82.54
78562;BME280;68963;52.138;5.446;2023-06-22T00:16:00;102080.72;;;19.04;82.41
78562;BME280;68963;52.138;5.446;2023-06-22T00:18:27;102079.28;;;19.01;82.69
78562;BME280;68963;52.138;5.446;2023-06-22T00:20:55;102081.56;;;18.98;82.74
78562;BME280;68963;52.138;5.446;2023-06-22T00:23:25;102074.63;;;18.90;83.06
78562;BME280;68963;52.138;5.446;2023-06-22T00:25:52;102076.50;;;18.83;83.14
78562;BME280;68963;52.138;5.446;2023-06-22T00:28:19;102078.13;;;18.84;83.37
78562;BME280;68963;52.138;5.446;2023-06-22T00:30:46;102074.44;;;18.85;83.68
78562;BME280;68963;52.138;5.446;2023-06-22T00:33:13;102075.72;;;18.76;82.53
78562;BME280;68963;52.138;5.446;2023-06-22T00:35:40;102063.00;;;18.71;84.06
78562;BME280;68963;52.138;5.446;2023-06-22T00:38:08;102061.97;;;18.66;84.71
78562;BME280;68963;52.138;5.446;2023-06-22T00:40:35;102056.22;;;18.62;85.27
78562;BME280;68963;52.138;5.446;2023-06-22T00:43:02;102058.50;;;18.58;84.77
78562;BME280;68963;52.138;5.446;2023-06-22T00:45:28;102052.56;;;18.56;85.47
78562;BME280;68963;52.138;5.446;2023-06-22T00:47:58;102049.28;;;18.54;85.42
78562;BME280;68963;52.138;5.446;2023-06-22T00:50:27;102051.34;;;18.52;85.67
78562;BME280;68963;52.138;5.446;2023-06-22T00:52:58;102058.75;;;18.50;85.22
78562;BME280;68963;52.138;5.446;2023-06-22T00:55:25;102053.63;;;18.49;85.17
78562;BME280;68963;52.138;5.446;2023-06-22T00:57:53;102056.88;;;18.51;85.33
78562;BME280;68963;52.138;5.446;2023-06-22T01:00:24;102054.03;;;18.46;85.10
78562;BME280;68963;52.138;5.446;2023-06-22T01:02:53;102050.75;;;18.37;85.34
78562;BME280;68963;52.138;5.446;2023-06-22T01:05:21;102046.06;;;18.26;85.51
78562;BME280;68963;52.138;5.446;2023-06-22T01:07:56;102039.34;;;18.23;85.57
78562;BME280;68963;52.138;5.446;2023-06-22T01:10:41;102042.41;;;18.20;85.58
78562;BME280;68963;52.138;5.446;2023-06-22T01:18:43;102067.03;;;18.16;85.67
78562;BME280;68963;52.138;5.446;2023-06-22T01:21:14;102062.94;;;18.06;85.97
78562;BME280;68963;52.138;5.446;2023-06-22T01:23:50;102063.97;;;17.99;86.19
78562;BME280;68963;52.138;5.446;2023-06-22T01:26:41;102051.47;;;17.93;86.40
78562;BME280;68963;52.138;5.446;2023-06-22T01:29:12;102049.66;;;17.86;87.35
78562;BME280;68963;52.138;5.446;2023-06-22T01:31:41;102042.66;;;17.85;87.19
78562;BME280;68963;52.138;5.446;2023-06-22T01:34:11;102057.66;;;17.86;86.67
78562;BME280;68963;52.138;5.446;2023-06-22T01:36:39;102049.25;;;17.83;86.93
78562;BME280;68963;52.138;5.446;2023-06-22T01:39:07;102048.00;;;17.79;87.03
78562;BME280;68963;52.138;5.446;2023-06-22T01:41:36;102054.56;;;17.76;87.08
78562;BME280;68963;52.138;5.446;2023-06-22T01:44:07;102048.22;;;17.77;86.99
78562;BME280;68963;52.138;5.446;2023-06-22T01:46:35;102052.94;;;17.75;86.75
78562;BME280;68963;52.138;5.446;2023-06-22T01:49:03;102049.84;;;17.72;86.73
78562;BME280;68963;52.138;5.446;2023-06-22T01:51:31;102035.47;;;17.66;87.02
78562;BME280;68963;52.138;5.446;2023-06-22T01:53:57;102043.88;;;17.63;86.82
78562;BME280;68963;52.138;5.446;2023-06-22T01:56:26;102042.63;;;17.59;86.92
78562;BME280;68963;52.138;5.446;2023-06-22T01:59:11;102043.69;;;17.58;87.16
78562;BME280;68963;52.138;5.446;2023-06-22T02:01:44;102039.97;;;17.52;86.98
78562;BME280;68963;52.138;5.446;2023-06-22T02:04:23;102042.44;;;17.47;87.42
78562;BME280;68963;52.138;5.446;2023-06-22T02:06:55;102039.34;;;17.44;88.03
78562;BME280;68963;52.138;5.446;2023-06-22T02:09:23;102031.59;;;17.42;88.15
78562;BME280;68963;52.138;5.446;2023-06-22T02:11:55;102029.72;;;17.36;88.09
78562;BME280;68963;52.138;5.446;2023-06-22T02:14:24;102033.59;;;17.33;88.55
78562;BME280;68963;52.138;5.446;2023-06-22T02:16:51;102038.34;;;17.31;88.69
78562;BME280;68963;52.138;5.446;2023-06-22T02:19:23;102026.84;;;17.24;89.60
78562;BME280;68963;52.138;5.446;2023-06-22T02:21:49;102027.88;;;17.23;89.08
78562;BME280;68963;52.138;5.446;2023-06-22T02:24:16;102029.28;;;17.26;89.22
78562;BME280;68963;52.138;5.446;2023-06-22T02:26:43;102031.53;;;17.15;90.34
78562;BME280;68963;52.138;5.446;2023-06-22T02:29:12;102028.03;;;17.15;91.02
78562;BME280;68963;52.138;5.446;2023-06-22T02:31:38;102030.94;;;17.13;90.46
78562;BME280;68963;52.138;5.446;2023-06-22T02:34:05;102029.69;;;17.09;90.14
78562;BME280;68963;52.138;5.446;2023-06-22T02:36:32;102025.16;;;17.03;90.17
78562;BME280;68963;52.138;5.446;2023-06-22T02:39:00;102030.47;;;16.97;90.28
78562;BME280;68963;52.138;5.446;2023-06-22T02:41:28;102030.25;;;16.92;90.42
78562;BME280;68963;52.138;5.446;2023-06-22T02:43:54;102032.88;;;16.85;90.57
78562;BME280;68963;52.138;5.446;2023-06-22T02:46:21;102035.13;;;16.81;90.58
78562;BME280;68963;52.138;5.446;2023-06-22T02:48:48;102019.56;;;16.78;90.65
78562;BME280;68963;52.138;5.446;2023-06-22T02:51:15;102022.03;;;16.80;90.59
78562;BME280;68963;52.138;5.446;2023-06-22T02:53:41;102014.06;;;16.80;90.59
78562;BME280;68963;52.138;5.446;2023-06-22T02:56:11;102016.91;;;16.78;90.57
78562;BME280;68963;52.138;5.446;2023-06-22T02:58:39;102023.47;;;16.82;90.76
78562;BME280;68963;52.138;5.446;2023-06-22T03:01:06;102023.28;;;16.84;91.34
78562;BME280;68963;52.138;5.446;2023-06-22T03:03:33;102023.28;;;16.84;91.93
78562;BME280;68963;52.138;5.446;2023-06-22T03:06:00;102021.00;;;16.81;91.64
78562;BME280;68963;52.138;5.446;2023-06-22T03:08:28;102020.38;;;16.79;91.47
78562;BME280;68963;52.138;5.446;2023-06-22T03:10:55;102023.19;;;16.71;92.70
78562;BME280;68963;52.138;5.446;2023-06-22T03:13:23;102025.25;;;16.69;92.91
78562;BME280;68963;52.138;5.446;2023-06-22T03:15:49;102023.59;;;16.67;93.50
78562;BME280;68963;52.138;5.446;2023-06-22T03:18:16;102026.25;;;16.67;92.85
78562;BME280;68963;52.138;5.446;2023-06-22T03:20:44;102026.44;;;16.66;92.49
78562;BME280;68963;52.138;5.446;2023-06-22T03:23:11;102026.03;;;16.62;92.35
78562;BME280;68963;52.138;5.446;2023-06-22T03:25:37;102029.91;;;16.60;92.40
78562;BME280;68963;52.138;5.446;2023-06-22T03:28:04;102025.81;;;16.57;92.97
78562;BME280;68963;52.138;5.446;2023-06-22T03:30:31;102012.50;;;16.57;94.13
78562;BME280;68963;52.138;5.446;2023-06-22T03:32:58;102004.13;;;16.54;94.30
78562;BME280;68963;52.138;5.446;2023-06-22T03:35:24;102005.53;;;16.50;94.57
78562;BME280;68963;52.138;5.446;2023-06-22T03:37:51;102003.69;;;16.50;94.99
78562;BME280;68963;52.138;5.446;2023-06-22T03:40:18;102003.03;;;16.48;95.13
78562;BME280;68963;52.138;5.446;2023-06-22T03:42:47;101998.75;;;16.47;95.37
78562;BME280;68963;52.138;5.446;2023-06-22T03:45:17;102005.53;;;16.50;95.69
78562;BME280;68963;52.138;5.446;2023-06-22T03:47:44;102005.97;;;16.53;95.01
78562;BME280;68963;52.138;5.446;2023-06-22T03:50:11;102008.63;;;16.53;94.45
78562;BME280;68963;52.138;5.446;2023-06-22T03:52:38;102001.22;;;16.49;94.55
78562;BME280;68963;52.138;5.446;2023-06-22T03:55:06;102000.00;;;16.51;95.10
78562;BME280;68963;52.138;5.446;2023-06-22T03:57:33;101989.38;;;16.51;95.20
78562;BME280;68963;52.138;5.446;2023-06-22T04:00:00;101995.50;;;16.52;95.37
78562;BME280;68963;52.138;5.446;2023-06-22T04:02:27;101997.75;;;16.55;95.43
78562;BME280;68963;52.138;5.446;2023-06-22T04:04:54;101995.31;;;16.53;94.92
78562;BME280;68963;52.138;5.446;2023-06-22T04:07:21;101998.38;;;16.50;95.51
78562;BME280;68963;52.138;5.446;2023-06-22T04:09:47;101996.91;;;16.48;95.67
78562;BME280;68963;52.138;5.446;2023-06-22T04:12:14;101987.47;;;16.45;96.12
78562;BME280;68963;52.138;5.446;2023-06-22T04:14:41;101995.47;;;16.45;96.47
78562;BME280;68963;52.138;5.446;2023-06-22T04:17:07;101985.06;;;16.50;96.34
78562;BME280;68963;52.138;5.446;2023-06-22T04:19:34;101984.84;;;16.52;96.20
78562;BME280;68963;52.138;5.446;2023-06-22T04:22:01;101980.78;;;16.56;96.13
78562;BME280;68963;52.138;5.446;2023-06-22T04:24:37;101989.41;;;16.64;95.37
78562;BME280;68963;52.138;5.446;2023-06-22T04:27:04;101980.41;;;16.65;95.62
78562;BME280;68963;52.138;5.446;2023-06-22T04:29:31;101985.53;;;16.67;95.26
78562;BME280;68963;52.138;5.446;2023-06-22T04:31:59;101982.84;;;16.67;95.57
78562;BME280;68963;52.138;5.446;2023-06-22T04:34:29;101986.56;;;16.73;95.69
78562;BME280;68963;52.138;5.446;2023-06-22T04:36:56;101982.13;;;16.80;95.83
78562;BME280;68963;52.138;5.446;2023-06-22T04:39:23;101976.59;;;16.81;95.84
78562;BME280;68963;52.138;5.446;2023-06-22T04:41:50;101976.97;;;16.78;96.01
78562;BME280;68963;52.138;5.446;2023-06-22T04:44:18;101979.25;;;16.81;96.54
78562;BME280;68963;52.138;5.446;2023-06-22T04:46:52;101973.94;;;16.88;96.54
78562;BME280;68963;52.138;5.446;2023-06-22T04:49:36;101979.28;;;16.95;96.22
78562;BME280;68963;52.138;5.446;2023-06-22T04:52:10;101984.22;;;16.98;96.53
78562;BME280;68963;52.138;5.446;2023-06-22T04:54:38;101985.22;;;17.03;96.06
78562;BME280;68963;52.138;5.446;2023-06-22T04:57:07;101989.75;;;17.09;95.73
78562;BME280;68963;52.138;5.446;2023-06-22T04:59:37;101989.97;;;17.14;95.28
78562;BME280;68963;52.138;5.446;2023-06-22T05:02:08;101991.00;;;17.20;95.38
78562;BME280;68963;52.138;5.446;2023-06-22T05:04:35;101981.38;;;17.26;95.90
78562;BME280;68963;52.138;5.446;2023-06-22T05:07:06;101981.38;;;17.32;95.54
78562;BME280;68963;52.138;5.446;2023-06-22T05:09:33;101986.06;;;17.37;95.46
78562;BME280;68963;52.138;5.446;2023-06-22T05:12:02;101993.47;;;17.42;95.22
78562;BME280;68963;52.138;5.446;2023-06-22T05:15:05;101987.94;;;17.50;95.45
78562;BME280;68963;52.138;5.446;2023-06-22T05:17:38;101982.81;;;17.55;95.92
78562;BME280;68963;52.138;5.446;2023-06-22T05:20:13;101985.69;;;17.60;95.92
78562;BME280;68963;52.138;5.446;2023-06-22T05:22:40;101990.56;;;17.63;96.22
78562;BME280;68963;52.138;5.446;2023-06-22T05:25:09;101986.47;;;17.67;96.67
78562;BME280;68963;52.138;5.446;2023-06-22T05:27:59;101989.38;;;17.79;96.43
78562;BME280;68963;52.138;5.446;2023-06-22T05:34:50;101979.69;;;18.04;96.00
78562;BME280;68963;52.138;5.446;2023-06-22T05:37:16;101986.81;;;18.17;96.31
78562;BME280;68963;52.138;5.446;2023-06-22T05:39:44;101989.66;;;18.29;95.35
78562;BME280;68963;52.138;5.446;2023-06-22T05:42:11;101987.59;;;18.38;95.62
78562;BME280;68963;52.138;5.446;2023-06-22T05:44:38;101993.09;;;18.43;95.09
78562;BME280;68963;52.138;5.446;2023-06-22T05:47:07;101993.50;;;18.46;94.89
78562;BME280;68963;52.138;5.446;2023-06-22T05:49:34;101995.75;;;18.49;95.21
78562;BME280;68963;52.138;5.446;2023-06-22T05:52:04;101995.50;;;18.57;94.86
78562;BME280;68963;52.138;5.446;2023-06-22T05:54:31;101992.81;;;18.57;95.09
78562;BME280;68963;52.138;5.446;2023-06-22T05:56:58;101986.66;;;18.57;95.10
78562;BME280;68963;52.138;5.446;2023-06-22T05:59:25;101995.03;;;18.67;95.17
78562;BME280;68963;52.138;5.446;2023-06-22T06:01:52;101999.09;;;18.83;95.12
78562;BME280;68963;52.138;5.446;2023-06-22T06:04:21;102002.22;;;19.12;94.41
78562;BME280;68963;52.138;5.446;2023-06-22T06:06:49;102002.88;;;19.32;93.18
78562;BME280;68963;52.138;5.446;2023-06-22T06:09:15;101997.09;;;19.35;93.09
78562;BME280;68963;52.138;5.446;2023-06-22T06:11:43;101999.81;;;19.53;92.45
78562;BME280;68963;52.138;5.446;2023-06-22T06:14:10;101995.09;;;19.55;91.58
78562;BME280;68963;52.138;5.446;2023-06-22T06:16:37;101994.97;;;19.69;91.69
78562;BME280;68963;52.138;5.446;2023-06-22T06:19:03;101988.09;;;19.79;91.02
78562;BME280;68963;52.138;5.446;2023-06-22T06:21:30;101984.97;;;19.83;90.88
78562;BME280;68963;52.138;5.446;2023-06-22T06:23:57;101979.28;;;19.97;91.98
78562;BME280;68963;52.138;5.446;2023-06-22T06:26:25;101971.91;;;20.11;90.71
78562;BME280;68963;52.138;5.446;2023-06-22T06:28:56;101973.47;;;20.19;90.99
78562;BME280;68963;52.138;5.446;2023-06-22T06:31:24;101973.47;;;20.37;89.79
78562;BME280;68963;52.138;5.446;2023-06-22T06:33:51;101979.25;;;20.53;88.90
78562;BME280;68963;52.138;5.446;2023-06-22T06:36:17;101970.41;;;20.52;88.08
78562;BME280;68963;52.138;5.446;2023-06-22T06:38:44;101969.50;;;20.58;89.03
78562;BME280;68963;52.138;5.446;2023-06-22T06:41:11;101966.19;;;20.74;87.45
78562;BME280;68963;52.138;5.446;2023-06-22T06:43:37;101971.09;;;20.78;86.59
78562;BME280;68963;52.138;5.446;2023-06-22T06:46:04;101959.69;;;20.82;85.67
78562;BME280;68963;52.138;5.446;2023-06-22T06:48:31;101964.97;;;20.89;85.98
78562;BME280;68963;52.138;5.446;2023-06-22T06:50:58;101959.16;;;20.92;85.53
78562;BME280;68963;52.138;5.446;2023-06-22T06:53:25;101948.56;;;20.97;85.55
78562;BME280;68963;52.138;5.446;2023-06-22T06:55:52;101960.31;;;20.96;84.01
78562;BME280;68963;52.138;5.446;2023-06-22T06:58:19;101962.31;;;21.01;85.53
78562;BME280;68963;52.138;5.446;2023-06-22T07:00:48;101961.75;;;21.22;85.23
78562;BME280;68963;52.138;5.446;2023-06-22T07:03:15;101964.22;;;21.35;83.08
78562;BME280;68963;52.138;5.446;2023-06-22T07:05:42;101946.94;;;21.31;82.87
78562;BME280;68963;52.138;5.446;2023-06-22T07:08:09;101959.78;;;21.29;82.13
78562;BME280;68963;52.138;5.446;2023-06-22T07:10:36;101958.13;;;21.28;82.73
78562;BME280;68963;52.138;5.446;2023-06-22T07:13:21;101956.66;;;21.32;81.73
78562;BME280;68963;52.138;5.446;2023-06-22T07:15:48;101948.50;;;21.39;81.67
78562;BME280;68963;52.138;5.446;2023-06-22T07:18:15;101946.78;;;21.44;81.34
78562;BME280;68963;52.138;5.446;2023-06-22T07:20:44;101952.69;;;21.46;81.09
78562;BME280;68963;52.138;5.446;2023-06-22T07:23:10;101947.34;;;21.58;80.84
78562;BME280;68963;52.138;5.446;2023-06-22T07:25:37;101945.81;;;21.74;81.27
78562;BME280;68963;52.138;5.446;2023-06-22T07:28:05;101944.75;;;21.87;80.46
78562;BME280;68963;52.138;5.446;2023-06-22T07:30:33;101947.88;;;21.95;77.33
78562;BME280;68963;52.138;5.446;2023-06-22T07:33:01;101956.31;;;21.87;77.31
78562;BME280;68963;52.138;5.446;2023-06-22T07:35:34;101951.75;;;21.88;77.05
78562;BME280;68963;52.138;5.446;2023-06-22T07:38:01;101947.50;;;22.04;77.63
78562;BME280;68963;52.138;5.446;2023-06-22T07:40:31;101942.25;;;22.09;77.24
78562;BME280;68963;52.138;5.446;2023-06-22T07:42:58;101943.16;;;22.26;77.50
78562;BME280;68963;52.138;5.446;2023-06-22T07:45:25;101939.28;;;22.34;75.85
78562;BME280;68963;52.138;5.446;2023-06-22T07:47:51;101931.03;;;22.24;77.38
78562;BME280;68963;52.138;5.446;2023-06-22T07:50:18;101925.44;;;22.25;75.83
78562;BME280;68963;52.138;5.446;2023-06-22T07:52:44;101930.81;;;22.25;76.49
78562;BME280;68963;52.138;5.446;2023-06-22T07:55:11;101928.13;;;22.25;77.86
78562;BME280;68963;52.138;5.446;2023-06-22T07:57:37;101932.03;;;22.34;75.43
78562;BME280;68963;52.138;5.446;2023-06-22T08:00:05;101929.81;;;22.31;74.85
78562;BME280;68963;52.138;5.446;2023-06-22T08:02:44;101929.34;;;22.34;77.40
78562;BME280;68963;52.138;5.446;2023-06-22T08:05:11;101926.47;;;22.53;74.56
78562;BME280;68963;52.138;5.446;2023-06-22T08:07:48;101915.09;;;22.62;74.45
78562;BME280;68963;52.138;5.446;2023-06-22T08:10:15;101908.09;;;22.61;73.63
78562;BME280;68963;52.138;5.446;2023-06-22T08:12:42;101915.69;;;22.64;73.71
78562;BME280;68963;52.138;5.446;2023-06-22T08:15:10;101903.16;;;22.70;72.73
78562;BME280;68963;52.138;5.446;2023-06-22T08:17:37;101907.44;;;22.71;72.27
78562;BME280;68963;52.138;5.446;2023-06-22T08:20:05;101900.06;;;22.78;71.99
78562;BME280;68963;52.138;5.446;2023-06-22T08:22:36;101901.03;;;22.89;73.55
78562;BME280;68963;52.138;5.446;2023-06-22T08:25:06;101895.88;;;23.16;72.80
78562;BME280;68963;52.138;5.446;2023-06-22T08:27:33;101884.56;;;23.36;72.18
78562;BME280;68963;52.138;5.446;2023-06-22T08:30:00;101889.47;;;23.39;69.89
78562;BME280;68963;52.138;5.446;2023-06-22T08:32:27;101876.78;;;23.34;70.64
78562;BME280;68963;52.138;5.446;2023-06-22T08:34:55;101871.63;;;23.33;68.67
78562;BME280;68963;52.138;5.446;2023-06-22T08:37:22;101867.06;;;23.33;67.15
78562;BME280;68963;52.138;5.446;2023-06-22T08:39:59;101870.56;;;23.34;68.27
78562;BME280;68963;52.138;5.446;2023-06-22T08:42:26;101872.75;;;23.37;70.02
78562;BME280;68963;52.138;5.446;2023-06-22T08:44:52;101868.59;;;23.46;68.45
78562;BME280;68963;52.138;5.446;2023-06-22T08:47:20;101869.13;;;23.48;66.18
78562;BME280;68963;52.138;5.446;2023-06-22T08:49:48;101864.97;;;23.57;66.07
78562;BME280;68963;52.138;5.446;2023-06-22T08:52:15;101854.66;;;23.71;66.49
78562;BME280;68963;52.138;5.446;2023-06-22T08:54:41;101849.03;;;23.95;67.12
78562;BME280;68963;52.138;5.446;2023-06-22T08:57:08;101848.41;;;24.15;65.58
78562;BME280;68963;52.138;5.446;2023-06-22T08:59:34;101852.88;;;24.31;64.10
78562;BME280;68963;52.138;5.446;2023-06-22T09:02:01;101844.09;;;24.41;62.29
78562;BME280;68963;52.138;5.446;2023-06-22T09:04:28;101851.44;;;24.45;59.89
78562;BME280;68963;52.138;5.446;2023-06-22T09:06:55;101853.06;;;24.46;58.79
78562;BME280;68963;52.138;5.446;2023-06-22T09:09:21;101852.63;;;24.59;56.80
78562;BME280;68963;52.138;5.446;2023-06-22T09:11:48;101855.66;;;24.68;56.58
78562;BME280;68963;52.138;5.446;2023-06-22T09:14:15;101853.28;;;24.77;58.73
78562;BME280;68963;52.138;5.446;2023-06-22T09:16:42;101853.97;;;24.94;59.03
78562;BME280;68963;52.138;5.446;2023-06-22T09:19:09;101852.41;;;25.03;58.95
78562;BME280;68963;52.138;5.446;2023-06-22T09:21:36;101850.53;;;25.04;59.14
78562;BME280;68963;52.138;5.446;2023-06-22T09:24:03;101848.75;;;25.20;61.06
78562;BME280;68963;52.138;5.446;2023-06-22T09:26:30;101842.56;;;25.24;58.12
78562;BME280;68963;52.138;5.446;2023-06-22T09:28:57;101842.81;;;25.18;58.04
78562;BME280;68963;52.138;5.446;2023-06-22T09:31:24;101849.31;;;25.22;57.95
78562;BME280;68963;52.138;5.446;2023-06-22T09:36:53;101846.25;;;25.61;57.89
78562;BME280;68963;52.138;5.446;2023-06-22T09:39:20;101844.75;;;25.95;57.04
78562;BME280;68963;52.138;5.446;2023-06-22T09:41:47;101841.00;;;26.01;57.30
78562;BME280;68963;52.138;5.446;2023-06-22T09:44:13;101846.69;;;26.20;57.64
78562;BME280;68963;52.138;5.446;2023-06-22T09:46:40;101842.13;;;26.36;54.75
78562;BME280;68963;52.138;5.446;2023-06-22T09:49:07;101840.25;;;26.47;54.55
78562;BME280;68963;52.138;5.446;2023-06-22T09:51:33;101836.16;;;26.09;53.55
78562;BME280;68963;52.138;5.446;2023-06-22T09:54:00;101839.63;;;25.99;55.48
78562;BME280;68963;52.138;5.446;2023-06-22T09:56:27;101830.97;;;25.92;56.43
78562;BME280;68963;52.138;5.446;2023-06-22T09:58:56;101840.16;;;25.86;57.47
78562;BME280;68963;52.138;5.446;2023-06-22T10:01:39;101835.03;;;25.84;57.05
78562;BME280;68963;52.138;5.446;2023-06-22T10:04:09;101835.50;;;25.76;55.11
78562;BME280;68963;52.138;5.446;2023-06-22T10:06:36;101841.94;;;25.60;55.93
78562;BME280;68963;52.138;5.446;2023-06-22T10:09:03;101835.69;;;25.49;56.68
78562;BME280;68963;52.138;5.446;2023-06-22T10:11:29;101841.03;;;25.39;57.52
78562;BME280;68963;52.138;5.446;2023-06-22T10:13:57;101848.53;;;25.26;55.91
78562;BME280;68963;52.138;5.446;2023-06-22T10:16:29;101845.72;;;25.11;54.72
78562;BME280;68963;52.138;5.446;2023-06-22T10:18:56;101835.13;;;24.99;55.64
78562;BME280;68963;52.138;5.446;2023-06-22T10:21:23;101829.94;;;24.88;55.48
78562;BME280;68963;52.138;5.446;2023-06-22T10:23:50;101838.22;;;24.81;56.07
78562;BME280;68963;52.138;5.446;2023-06-22T10:26:16;101830.09;;;24.71;57.41
78562;BME280;68963;52.138;5.446;2023-06-22T10:28:43;101834.91;;;24.69;57.62
78562;BME280;68963;52.138;5.446;2023-06-22T10:31:10;101838.13;;;24.66;55.48
78562;BME280;68963;52.138;5.446;2023-06-22T10:33:36;101834.31;;;24.62;57.38
78562;BME280;68963;52.138;5.446;2023-06-22T10:36:03;101841.84;;;24.59;58.04
78562;BME280;68963;52.138;5.446;2023-06-22T10:38:31;101848.00;;;24.55;59.66
78562;BME280;68963;52.138;5.446;2023-06-22T10:40:57;101836.94;;;24.51;57.54
78562;BME280;68963;52.138;5.446;2023-06-22T10:43:24;101833.41;;;24.46;57.35
78562;BME280;68963;52.138;5.446;2023-06-22T10:45:51;101834.44;;;24.45;57.69
78562;BME280;68963;52.138;5.446;2023-06-22T10:48:18;101830.94;;;24.44;58.26
78562;BME280;68963;52.138;5.446;2023-06-22T10:50:44;101834.19;;;24.46;57.91
78562;BME280;68963;52.138;5.446;2023-06-22T10:53:11;101838.00;;;24.50;57.40
78562;BME280;68963;52.138;5.446;2023-06-22T10:55:37;101841.56;;;24.56;57.98
78562;BME280;68963;52.138;5.446;2023-06-22T10:58:22;101842.69;;;24.60;58.99
78562;BME280;68963;52.138;5.446;2023-06-22T11:00:48;101832.44;;;24.62;59.12
78562;BME280;68963;52.138;5.446;2023-06-22T11:03:15;101845.13;;;24.67;58.69
78562;BME280;68963;52.138;5.446;2023-06-22T11:05:42;101841.91;;;24.70;59.12
78562;BME280;68963;52.138;5.446;2023-06-22T11:08:08;101838.75;;;24.78;58.49
78562;BME280;68963;52.138;5.446;2023-06-22T11:10:35;101828.31;;;24.87;59.41
78562;BME280;68963;52.138;5.446;2023-06-22T11:13:02;101831.66;;;25.04;59.13
78562;BME280;68963;52.138;5.446;2023-06-22T11:15:30;101829.03;;;25.14;58.32
78562;BME280;68963;52.138;5.446;2023-06-22T11:17:58;101823.16;;;25.22;57.24
78562;BME280;68963;52.138;5.446;2023-06-22T11:20:24;101818.88;;;25.26;58.62
78562;BME280;68963;52.138;5.446;2023-06-22T11:22:51;101823.75;;;25.35;57.78
78562;BME280;68963;52.138;5.446;2023-06-22T11:25:18;101824.34;;;25.47;58.97
78562;BME280;68963;52.138;5.446;2023-06-22T11:27:45;101814.97;;;25.60;58.47
78562;BME280;68963;52.138;5.446;2023-06-22T11:30:11;101817.38;;;25.66;59.01
78562;BME280;68963;52.138;5.446;2023-06-22T11:32:38;101814.16;;;25.69;56.17
78562;BME280;68963;52.138;5.446;2023-06-22T11:35:05;101814.44;;;25.68;56.05
78562;BME280;68963;52.138;5.446;2023-06-22T11:37:32;101813.09;;;25.70;56.47
78562;BME280;68963;52.138;5.446;2023-06-22T11:39:59;101808.03;;;25.79;56.49
78562;BME280;68963;52.138;5.446;2023-06-22T11:42:32;101806.69;;;25.82;56.89
78562;BME280;68963;52.138;5.446;2023-06-22T11:45:00;101793.19;;;25.87;57.16
78562;BME280;68963;52.138;5.446;2023-06-22T11:47:29;101787.78;;;25.87;57.49
78562;BME280;68963;52.138;5.446;2023-06-22T11:49:55;101788.06;;;25.85;55.85
78562;BME280;68963;52.138;5.446;2023-06-22T11:52:22;101785.09;;;25.87;56.11
78562;BME280;68963;52.138;5.446;2023-06-22T11:54:49;101789.69;;;25.91;55.80
78562;BME280;68963;52.138;5.446;2023-06-22T11:57:16;101790.50;;;25.97;56.00
78562;BME280;68963;52.138;5.446;2023-06-22T11:59:42;101786.44;;;25.99;56.04
78562;BME280;68963;52.138;5.446;2023-06-22T12:02:09;101786.47;;;25.94;58.82
78562;BME280;68963;52.138;5.446;2023-06-22T12:04:36;101792.66;;;25.95;56.25
78562;BME280;68963;52.138;5.446;2023-06-22T12:07:03;101785.09;;;25.87;57.27
78562;BME280;68963;52.138;5.446;2023-06-22T12:09:30;101785.63;;;25.78;57.28
78562;BME280;68963;52.138;5.446;2023-06-22T12:11:56;101779.34;;;25.68;57.17
78562;BME280;68963;52.138;5.446;2023-06-22T12:14:23;101780.16;;;25.63;58.30
78562;BME280;68963;52.138;5.446;2023-06-22T12:16:49;101777.75;;;25.67;59.46
78562;BME280;68963;52.138;5.446;2023-06-22T12:19:16;101774.22;;;25.66;58.59
78562;BME280;68963;52.138;5.446;2023-06-22T12:21:43;101774.97;;;25.51;59.55
78562;BME280;68963;52.138;5.446;2023-06-22T12:24:12;101772.78;;;25.38;60.93
78562;BME280;68963;52.138;5.446;2023-06-22T12:26:39;101769.00;;;25.34;63.92
78562;BME280;68963;52.138;5.446;2023-06-22T12:29:05;101773.03;;;25.32;64.41
78562;BME280;68963;52.138;5.446;2023-06-22T12:31:32;101777.06;;;25.24;65.65
78562;BME280;68963;52.138;5.446;2023-06-22T12:33:59;101775.88;;;25.04;67.60
78562;BME280;68963;52.138;5.446;2023-06-22T12:36:25;101765.31;;;25.03;68.68
78562;BME280;68963;52.138;5.446;2023-06-22T12:38:52;101766.34;;;24.92;68.57
78562;BME280;68963;52.138;5.446;2023-06-22T12:41:21;101765.66;;;24.69;67.18
78562;BME280;68963;52.138;5.446;2023-06-22T12:43:47;101767.75;;;24.57;66.39
78562;BME280;68963;52.138;5.446;2023-06-22T12:46:14;101771.22;;;24.52;66.77
78562;BME280;68963;52.138;5.446;2023-06-22T12:48:41;101767.38;;;24.43;68.62
78562;BME280;68963;52.138;5.446;2023-06-22T12:51:09;101755.78;;;24.43;68.26
78562;BME280;68963;52.138;5.446;2023-06-22T12:53:36;101756.88;;;24.42;69.19
78562;BME280;68963;52.138;5.446;2023-06-22T12:56:03;101759.75;;;24.35;67.81
78562;BME280;68963;52.138;5.446;2023-06-22T12:58:30;101760.78;;;24.29;68.33
78562;BME280;68963;52.138;5.446;2023-06-22T13:00:57;101754.84;;;24.27;70.88
78562;BME280;68963;52.138;5.446;2023-06-22T13:03:23;101751.38;;;24.31;70.27
78562;BME280;68963;52.138;5.446;2023-06-22T13:05:52;101745.19;;;24.31;67.51
78562;BME280;68963;52.138;5.446;2023-06-22T13:08:19;101742.78;;;24.34;69.32